This is the latest recevied weather packets stored in our database for station/object JA7ZQY-10. If no packets are shown the sender has not sent any weather packets the latest 10 day(s).
| Time | Temp. | Humidity | Pressure | Rain* | Wind** | Luminosity | Snow |
|---|---|---|---|---|---|---|---|
| 1778181890 | 12.78° C | 88% | 1008.8 hPa | 0 mm | - | - | - |
| 1778181290 | 12.22° C | 88% | 1008.7 hPa | 0 mm | - | - | - |
| 1778180690 | 12.78° C | 86% | 1008.5 hPa | 0 mm | - | - | - |
| 1778180090 | 12.78° C | 85% | 1008.9 hPa | 0 mm | - | - | - |
| 1778179490 | 12.78° C | 83% | 1008.8 hPa | 0 mm | - | - | - |
| 1778178890 | 13.33° C | 81% | 1008.6 hPa | 0 mm | - | - | - |
| 1778178290 | 13.89° C | 76% | 1008.8 hPa | 0 mm | - | - | - |
| 1778177690 | 15° C | 72% | 1008.9 hPa | 0 mm | - | - | - |
| 1778177091 | 15.56° C | 71% | 1008.6 hPa | 0 mm | - | - | - |
| 1778176490 | 16.11° C | 71% | 1008.7 hPa | 0 mm | - | - | - |
| 1778175891 | 16.11° C | 71% | 1008.8 hPa | 0 mm | - | - | - |
| 1778175290 | 16.11° C | 70% | 1008.6 hPa | 0 mm | - | - | - |
| 1778174690 | 16.67° C | 70% | 1008.9 hPa | 0 mm | - | - | - |
| 1778174091 | 16.67° C | 69% | 1008.8 hPa | 0 mm | - | - | - |
| 1778173490 | 16.67° C | 69% | 1008.7 hPa | 0 mm | - | - | - |
| 1778172891 | 16.67° C | 68% | 1009.2 hPa | 0 mm | - | - | - |
| 1778172291 | 16.67° C | 68% | 1009 hPa | 0 mm | - | - | - |
| 1778171690 | 16.67° C | 69% | 1009.2 hPa | 0 mm | - | - | - |
| 1778171090 | 16.67° C | 69% | 1009.3 hPa | 0 mm | - | - | - |
| 1778170491 | 16.67° C | 68% | 1009.2 hPa | 0 mm | - | - | - |
| 1778169891 | 16.67° C | 69% | 1009.6 hPa | 0 mm | - | - | - |
| 1778169289 | 16.67° C | 69% | 1009.8 hPa | 0 mm | - | - | - |
| 1778168689 | 16.67° C | 70% | 1010.2 hPa | 0 mm | - | - | - |
| 1778168089 | 16.67° C | 70% | 1009.9 hPa | 0 mm | - | - | - |
| 1778167490 | 16.67° C | 70% | 1010.1 hPa | 0 mm | - | - | - |
* Rain latest hour (hover to see other rain measurements)
** Current wind speed in m/s (hover to see current wind gust speed)